AUR216 EGJB-EGJA

Flight info

Callsign AUR216
Flight time 0h 17m
Altitude 2000
Route ALD
Aircraft DHC6/L-SDFGR/C

Departure

Time 2026-05-07 20:05
Airport Guernsey Airport (EGJB)

Arrival

Time 2026-05-07 20:22
Airport Alderney Airport (EGJA)
Time Latitude Longitude Altitude Speed Heading
2026-05-07 19:44 49.43295 -2.59340 332 ft 0 kts 176°
2026-05-07 19:56 49.43294 -2.59340 332 ft 0 kts 176°
2026-05-07 19:57 49.43296 -2.59340 332 ft 0 kts 176°
2026-05-07 19:57 49.43314 -2.59342 332 ft 4 kts 175°
2026-05-07 19:57 49.43343 -2.59345 332 ft 0 kts 198°
2026-05-07 19:57 49.43358 -2.59336 332 ft 3 kts 209°
2026-05-07 19:58 49.43364 -2.59326 332 ft 2 kts 242°
2026-05-07 19:58 49.43367 -2.59315 332 ft 0 kts 264°
2026-05-07 19:59 49.43366 -2.59326 332 ft 2 kts 269°
2026-05-07 19:59 49.43367 -2.59388 332 ft 10 kts 270°
2026-05-07 20:00 49.43364 -2.59550 331 ft 19 kts 268°
2026-05-07 20:00 49.43348 -2.59774 328 ft 22 kts 254°
2026-05-07 20:00 49.43340 -2.60015 322 ft 22 kts 268°
2026-05-07 20:00 49.43334 -2.60262 312 ft 23 kts 267°
2026-05-07 20:01 49.43327 -2.60524 302 ft 24 kts 267°
2026-05-07 20:01 49.43348 -2.60777 296 ft 23 kts 281°
2026-05-07 20:01 49.43365 -2.61003 295 ft 18 kts 266°
2026-05-07 20:01 49.43361 -2.61170 296 ft 12 kts 268°
2026-05-07 20:02 49.43360 -2.61220 296 ft 2 kts 270°
2026-05-07 20:02 49.43360 -2.61226 296 ft 0 kts 270°
2026-05-07 20:02 49.43360 -2.61237 296 ft 2 kts 270°
2026-05-07 20:02 49.43375 -2.61284 296 ft 8 kts 306°
2026-05-07 20:03 49.43429 -2.61359 296 ft 11 kts 345°
2026-05-07 20:03 49.43472 -2.61341 296 ft 7 kts 73°
2026-05-07 20:03 49.43474 -2.61317 296 ft 0 kts 85°
2026-05-07 20:04 49.43477 -2.61225 296 ft 34 kts 86°
2026-05-07 20:04 49.43489 -2.60571 327 ft 80 kts 89°
2026-05-07 20:04 49.43503 -2.59673 535 ft 90 kts 89°
2026-05-07 20:04 49.43499 -2.58654 770 ft 99 kts 91°
2026-05-07 20:05 49.43572 -2.57602 1062 ft 101 kts 69°
2026-05-07 20:05 49.44075 -2.56849 1329 ft 108 kts 41°
2026-05-07 20:05 49.44711 -2.56122 1529 ft 117 kts 41°
2026-05-07 20:05 49.45385 -2.55384 1743 ft 123 kts 38°
2026-05-07 20:06 49.46125 -2.54625 1896 ft 133 kts 38°
2026-05-07 20:06 49.46941 -2.53864 1990 ft 144 kts 36°
2026-05-07 20:06 49.47824 -2.53026 2002 ft 155 kts 36°
2026-05-07 20:06 49.48764 -2.52125 2004 ft 161 kts 36°
2026-05-07 20:07 49.49693 -2.51121 2003 ft 162 kts 41°
2026-05-07 20:07 49.50600 -2.50069 2001 ft 164 kts 41°
2026-05-07 20:07 49.51521 -2.48997 2001 ft 165 kts 41°
2026-05-07 20:07 49.52437 -2.47926 2001 ft 165 kts 41°
2026-05-07 20:08 49.53343 -2.46867 2000 ft 166 kts 41°
2026-05-07 20:08 49.54268 -2.45784 2000 ft 166 kts 41°
2026-05-07 20:08 49.55192 -2.44699 2000 ft 166 kts 41°
2026-05-07 20:08 49.55993 -2.43463 1981 ft 163 kts 63°
2026-05-07 20:09 49.56442 -2.41878 1994 ft 163 kts 57°
2026-05-07 20:09 49.57133 -2.40501 1998 ft 164 kts 51°
2026-05-07 20:09 49.57921 -2.39200 2000 ft 165 kts 49°
2026-05-07 20:10 49.59555 -2.36720 2000 ft 165 kts 47°
2026-05-07 20:10 49.60402 -2.35465 2000 ft 166 kts 47°
2026-05-07 20:10 49.61236 -2.34224 2002 ft 166 kts 48°
2026-05-07 20:10 49.62060 -2.33006 2002 ft 166 kts 48°
2026-05-07 20:11 49.62897 -2.31769 2002 ft 166 kts 47°
2026-05-07 20:11 49.63739 -2.30527 2002 ft 166 kts 47°
2026-05-07 20:11 49.64581 -2.29284 2002 ft 166 kts 48°
2026-05-07 20:11 49.65418 -2.28048 2002 ft 166 kts 48°
2026-05-07 20:12 49.66256 -2.26810 2001 ft 167 kts 47°
2026-05-07 20:12 49.67090 -2.25578 2002 ft 167 kts 48°
2026-05-07 20:12 49.67916 -2.24357 2000 ft 160 kts 48°
2026-05-07 20:12 49.68695 -2.23206 1998 ft 152 kts 48°
2026-05-07 20:13 49.69453 -2.22086 1998 ft 146 kts 48°
2026-05-07 20:13 49.70219 -2.21068 1993 ft 145 kts 37°
2026-05-07 20:13 49.71198 -2.20627 1987 ft 148 kts
2026-05-07 20:13 49.72136 -2.21289 1988 ft 150 kts 319°
2026-05-07 20:14 49.72602 -2.22683 1989 ft 147 kts 278°
2026-05-07 20:14 49.72518 -2.24223 1997 ft 140 kts 260°
2026-05-07 20:14 49.72371 -2.25689 1992 ft 136 kts 259°
2026-05-07 20:14 49.72255 -2.27114 1985 ft 134 kts 262°
2026-05-07 20:15 49.72226 -2.28551 1930 ft 132 kts 269°
2026-05-07 20:15 49.72261 -2.30004 1809 ft 133 kts 273°
2026-05-07 20:15 49.72351 -2.31456 1655 ft 136 kts 274°
2026-05-07 20:15 49.72367 -2.32916 1567 ft 132 kts 263°
2026-05-07 20:16 49.72258 -2.34308 1484 ft 129 kts 261°
2026-05-07 20:16 49.72149 -2.35704 1379 ft 129 kts 262°
2026-05-07 20:16 49.71915 -2.36977 1334 ft 118 kts 225°
2026-05-07 20:16 49.71231 -2.37254 1321 ft 97 kts 152°
2026-05-07 20:17 49.70836 -2.36481 1272 ft 90 kts 120°
2026-05-07 20:17 49.70505 -2.35681 1262 ft 83 kts 121°
2026-05-07 20:17 49.70210 -2.34958 1267 ft 75 kts 121°
2026-05-07 20:17 49.69947 -2.34267 1254 ft 70 kts 117°
2026-05-07 20:18 49.69733 -2.33626 1264 ft 66 kts 113°
2026-05-07 20:18 49.69591 -2.32950 1263 ft 68 kts 105°
2026-05-07 20:18 49.69499 -2.32231 1301 ft 67 kts 96°
2026-05-07 20:18 49.69521 -2.31503 1312 ft 69 kts 84°
2026-05-07 20:19 49.69620 -2.30762 1309 ft 72 kts 81°
2026-05-07 20:19 49.69692 -2.29978 1325 ft 70 kts 87°
2026-05-07 20:19 49.69760 -2.29233 1340 ft 70 kts 83°
2026-05-07 20:19 49.69847 -2.28470 1304 ft 75 kts 83°
2026-05-07 20:20 49.69925 -2.27934 1275 ft 78 kts 79°
2026-05-07 20:20 49.70100 -2.26821 1198 ft 72 kts 78°
2026-05-07 20:20 49.70173 -2.26066 1076 ft 73 kts 85°
2026-05-07 20:20 49.70247 -2.25272 957 ft 78 kts 84°
2026-05-07 20:21 49.70330 -2.24430 774 ft 78 kts 83°
2026-05-07 20:21 49.70416 -2.23635 595 ft 72 kts 83°
2026-05-07 20:21 49.70504 -2.22903 406 ft 67 kts 83°
2026-05-07 20:21 49.70582 -2.22241 323 ft 58 kts 81°
2026-05-07 20:22 49.70647 -2.21692 295 ft 44 kts 79°
2026-05-07 20:22 49.70697 -2.21292 295 ft 31 kts 79°
2026-05-07 20:22 49.70726 -2.21029 295 ft 18 kts 80°
2026-05-07 20:22 49.70737 -2.20925 295 ft 4 kts 86°
2026-05-07 20:23 49.70737 -2.20896 295 ft 1 kts 18°
2026-05-07 20:23 49.70740 -2.20920 295 ft 4 kts 256°
2026-05-07 20:23 49.70730 -2.21003 295 ft 11 kts 260°
2026-05-07 20:23 49.70710 -2.21163 295 ft 17 kts 259°
2026-05-07 20:24 49.70682 -2.21392 295 ft 24 kts 259°
2026-05-07 20:24 49.70668 -2.21515 295 ft 1 kts 271°
2026-05-07 20:24 49.70689 -2.21550 295 ft 7 kts 337°
2026-05-07 20:24 49.70746 -2.21575 295 ft 8 kts 355°
2026-05-07 20:25 49.70786 -2.21532 295 ft 7 kts 69°
2026-05-07 20:25 49.70805 -2.21462 295 ft 6 kts 69°
2026-05-07 20:25 49.70834 -2.21403 295 ft 6 kts 38°
2026-05-07 20:25 49.70870 -2.21384 295 ft 3 kts 302°
2026-05-07 20:26 49.70866 -2.21408 295 ft 0 kts 239°